Time;durP1;ratioP1;P1;durP2;ratioP2;P2;SDS_P1;SDS_P2;PMS_P1;PMS_P2;Temp;Humidity;BMP_temperature;BMP_pressure;BME280_temperature;BME280_humidity;BME280_pressure;Samples;Min_cycle;Max_cycle;Signal;HPM_P1;HPM_P2
2021/03/09 00:01:12;;;;;;;1999.90;999.90;;;15.00;70.00;;;;;;5052949;28;20176;-46
2021/03/09 00:03:39;;;;;;;1999.90;999.90;;;15.00;70.20;;;;;;5052946;28;20173;-47
2021/03/09 00:06:08;;;;;;;1999.90;999.90;;;14.90;69.70;;;;;;5052868;28;20214;-47
2021/03/09 00:08:36;;;;;;;1999.90;999.90;;;14.90;69.60;;;;;;5052902;28;20184;-46
2021/03/09 00:11:02;;;;;;;1999.90;999.90;;;14.90;70.00;;;;;;5052885;28;20196;-47
2021/03/09 00:13:29;;;;;;;1999.90;999.90;;;14.80;70.20;;;;;;5052889;28;20272;-49
2021/03/09 00:15:56;;;;;;;1999.90;999.90;;;14.90;70.20;;;;;;5052943;28;20716;-46
2021/03/09 00:18:23;;;;;;;1999.90;999.90;;;15.00;69.70;;;;;;5052786;28;20176;-46
2021/03/09 00:20:50;;;;;;;1999.90;999.90;;;14.90;69.60;;;;;;5052767;28;20187;-47
2021/03/09 00:23:17;;;;;;;1999.90;999.90;;;14.90;70.00;;;;;;5052749;28;20165;-46
2021/03/09 00:25:43;;;;;;;1999.90;999.90;;;14.80;70.10;;;;;;5052690;28;20169;-48
2021/03/09 00:28:10;;;;;;;1999.90;999.90;;;14.80;70.30;;;;;;5052708;28;20627;-47
2021/03/09 00:30:37;;;;;;;1999.90;999.90;;;14.80;71.10;;;;;;5052619;28;20171;-46
2021/03/09 00:33:04;;;;;;;1999.90;999.90;;;14.70;71.50;;;;;;5052458;28;20221;-47
2021/03/09 00:35:31;;;;;;;1999.90;999.90;;;14.70;71.80;;;;;;5052572;28;20204;-49
2021/03/09 00:37:58;;;;;;;1999.90;999.90;;;14.60;72.20;;;;;;5052758;28;20181;-47
2021/03/09 00:40:24;;;;;;;1999.90;999.90;;;14.60;72.50;;;;;;5052612;28;20197;-47
2021/03/09 00:42:51;;;;;;;1999.90;999.90;;;14.60;72.80;;;;;;5052513;28;20179;-46
2021/03/09 00:45:18;;;;;;;1999.90;999.90;;;14.50;73.00;;;;;;5052553;28;20169;-48
2021/03/09 00:47:45;;;;;;;1999.90;999.90;;;14.40;73.20;;;;;;5052552;28;20173;-46
2021/03/09 00:50:12;;;;;;;1999.90;999.90;;;14.40;73.80;;;;;;5052569;28;20166;-46
2021/03/09 00:52:39;;;;;;;1999.90;999.90;;;14.40;73.90;;;;;;5052462;28;20505;-46
2021/03/09 00:55:06;;;;;;;1999.90;999.90;;;14.30;74.30;;;;;;5052311;28;20200;-46
2021/03/09 00:57:34;;;;;;;1999.90;999.90;;;14.30;74.60;;;;;;5052451;28;20169;-48
2021/03/09 01:00:01;;;;;;;1999.90;999.90;;;14.30;74.90;;;;;;5052546;28;20624;-46
2021/03/09 01:02:28;;;;;;;1999.90;999.90;;;14.30;75.10;;;;;;5055670;28;20173;-46
2021/03/09 01:04:54;;;;;;;1999.90;999.90;;;14.20;74.80;;;;;;5056224;28;20169;-46
2021/03/09 01:07:22;;;;;;;1999.90;999.90;;;14.20;75.50;;;;;;5056102;28;20628;-46
2021/03/09 01:09:48;;;;;;;1999.90;999.90;;;14.20;76.40;;;;;;5056152;28;20165;-47
2021/03/09 01:12:15;;;;;;;1999.90;999.90;;;14.20;76.40;;;;;;5056048;28;20248;-46
2021/03/09 01:14:42;;;;;;;1999.90;999.90;;;14.10;76.40;;;;;;5056024;28;20185;-46
2021/03/09 01:17:09;;;;;;;1999.90;999.90;;;14.10;77.20;;;;;;5055946;28;20196;-47
2021/03/09 01:19:36;;;;;;;1999.90;999.90;;;14.10;77.30;;;;;;5055881;28;20563;-46
2021/03/09 01:22:02;;;;;;;1999.90;999.90;;;14.00;77.40;;;;;;5055975;28;20264;-47
2021/03/09 01:24:29;;;;;;;1999.90;999.90;;;14.00;77.60;;;;;;5055832;28;20169;-47
2021/03/09 01:26:56;;;;;;;1999.90;999.90;;;14.00;78.10;;;;;;5055819;28;20179;-47
2021/03/09 01:29:23;;;;;;;1999.90;999.90;;;14.00;77.50;;;;;;5055768;28;20173;-48
2021/03/09 01:31:49;;;;;;;1999.90;999.90;;;14.00;77.80;;;;;;5055463;28;20256;-48
2021/03/09 01:34:16;;;;;;;1999.90;999.90;;;13.90;78.10;;;;;;5055672;28;20185;-48
2021/03/09 01:36:43;;;;;;;1999.90;999.90;;;13.90;78.40;;;;;;5055523;28;20258;-46
2021/03/09 01:39:13;;;;;;;1999.90;999.90;;;13.90;78.50;;;;;;5055408;28;20208;-46
2021/03/09 01:41:39;;;;;;;1999.90;999.90;;;13.90;79.10;;;;;;5055493;28;20185;-46
2021/03/09 01:44:06;;;;;;;1999.90;999.90;;;14.00;77.80;;;;;;5055628;28;20180;-46
2021/03/09 01:46:34;;;;;;;1999.90;999.90;;;14.20;77.00;;;;;;5055605;28;20621;-47
2021/03/09 01:49:01;;;;;;;1999.90;999.90;;;14.30;76.20;;;;;;5055513;28;20598;-46
2021/03/09 01:51:27;;;;;;;1999.90;999.90;;;14.40;75.70;;;;;;5055387;28;20636;-46
2021/03/09 01:53:54;;;;;;;1999.90;999.90;;;14.40;75.30;;;;;;5055277;28;20244;-47
2021/03/09 01:56:21;;;;;;;1999.90;999.90;;;14.50;74.50;;;;;;5055251;28;20201;-48
2021/03/09 01:58:49;;;;;;;1999.90;999.90;;;14.60;73.90;;;;;;5055219;28;20165;-46
2021/03/09 02:01:17;;;;;;;1999.90;999.90;;;14.60;74.00;;;;;;5055092;28;20177;-47
2021/03/09 02:03:45;;;;;;;1999.90;999.90;;;14.70;73.20;;;;;;5055138;28;20168;-46
2021/03/09 02:06:16;;;;;;;1999.90;999.90;;;14.70;72.90;;;;;;5055023;28;20188;-46
2021/03/09 02:08:45;;;;;;;1999.90;999.90;;;14.70;73.00;;;;;;5055059;28;20575;-46
2021/03/09 02:11:53;;;;;;;1999.90;999.90;;;14.70;72.70;;;;;;5055062;28;20662;-47
2021/03/09 02:14:24;;;;;;;1999.90;999.90;;;14.70;72.60;;;;;;5054884;28;20197;-47
2021/03/09 02:16:58;;;;;;;1999.90;999.90;;;14.70;72.70;;;;;;5054969;28;20199;-47
2021/03/09 02:19:43;;;;;;;1999.90;999.90;;;14.70;72.70;;;;;;5054934;28;20189;-47
2021/03/09 02:22:39;;;;;;;1999.90;999.90;;;14.80;72.60;;;;;;5054898;28;20161;-50
2021/03/09 02:25:13;;;;;;;1999.90;999.90;;;14.80;72.50;;;;;;5054854;28;20157;-48
2021/03/09 02:27:58;;;;;;;1999.90;999.90;;;14.80;71.70;;;;;;5054931;28;20613;-46
2021/03/09 02:30:36;;;;;;;1999.90;999.90;;;14.80;71.40;;;;;;5054741;28;20311;-47
2021/03/09 02:33:35;;;;;;;1999.90;999.90;;;14.80;71.10;;;;;;5054454;28;20220;-51
2021/03/09 02:36:08;;;;;;;1999.90;999.90;;;14.80;70.90;;;;;;5038386;28;20225;-51
2021/03/09 02:38:47;;;;;;;1999.90;999.90;;;14.90;71.80;;;;;;5054463;28;20211;-48
2021/03/09 02:41:15;;;;;;;1999.90;999.90;;;14.90;72.40;;;;;;5054529;28;20153;-48
2021/03/09 02:43:49;;;;;;;1999.90;999.90;;;14.90;72.40;;;;;;5054320;28;20180;-50
2021/03/09 02:46:18;;;;;;;1999.90;999.90;;;14.80;73.00;;;;;;5054297;28;20218;-48
2021/03/09 02:48:46;;;;;;;1999.90;999.90;;;14.80;72.40;;;;;;5053026;28;20169;-49
2021/03/09 02:51:13;;;;;;;1999.90;999.90;;;14.70;72.50;;;;;;5054176;28;20244;-48
2021/03/09 02:53:50;;;;;;;1999.90;999.90;;;14.80;73.00;;;;;;5054331;28;20532;-49
2021/03/09 02:56:18;;;;;;;1999.90;999.90;;;14.80;73.30;;;;;;5054119;28;20250;-48
2021/03/09 02:58:52;;;;;;;1999.90;999.90;;;14.80;73.50;;;;;;5054041;28;20561;-48
2021/03/09 03:01:20;;;;;;;1999.90;999.90;;;14.80;73.90;;;;;;5054108;28;20161;-47
2021/03/09 03:03:48;;;;;;;1999.90;999.90;;;14.80;74.00;;;;;;5053994;28;20161;-47
2021/03/09 03:06:16;;;;;;;1999.90;999.90;;;14.80;74.20;;;;;;5053883;28;20165;-47
2021/03/09 03:08:44;;;;;;;1999.90;999.90;;;14.80;74.10;;;;;;5053956;28;20173;-47
2021/03/09 03:11:13;;;;;;;1999.90;999.90;;;14.80;74.10;;;;;;5053922;28;20212;-47
2021/03/09 03:13:42;;;;;;;1999.90;999.90;;;14.90;74.20;;;;;;5053942;28;20158;-48
2021/03/09 03:16:13;;;;;;;1999.90;999.90;;;14.90;74.20;;;;;;5053707;28;20301;-49
2021/03/09 03:18:43;;;;;;;1999.90;999.90;;;14.90;74.40;;;;;;5053812;28;20165;-47
2021/03/09 03:21:11;;;;;;;1999.90;999.90;;;14.90;74.50;;;;;;5053784;28;20188;-52
2021/03/09 03:23:40;;;;;;;1999.90;999.90;;;14.80;74.60;;;;;;5052942;28;20169;-47
2021/03/09 03:26:10;;;;;;;1999.90;999.90;;;14.80;74.80;;;;;;5053587;28;20168;-49
2021/03/09 03:28:44;;;;;;;1999.90;999.90;;;14.80;74.90;;;;;;5053490;28;20169;-47
2021/03/09 03:31:11;;;;;;;1999.90;999.90;;;14.80;74.70;;;;;;5053614;28;20161;-49
2021/03/09 03:33:39;;;;;;;1999.90;999.90;;;14.90;74.90;;;;;;5053192;28;20294;-49
2021/03/09 03:36:06;;;;;;;1999.90;999.90;;;15.00;74.30;;;;;;5053343;28;20734;-49
2021/03/09 03:38:38;;;;;;;1999.90;999.90;;;15.00;74.20;;;;;;5053355;28;20680;-49
2021/03/09 03:41:07;;;;;;;1999.90;999.90;;;15.10;74.10;;;;;;5053281;28;20180;-48
2021/03/09 03:43:35;;;;;;;1999.90;999.90;;;15.10;73.60;;;;;;5053272;28;20162;-48
2021/03/09 03:46:03;;;;;;;1999.90;999.90;;;15.20;73.20;;;;;;5053157;28;20181;-48
2021/03/09 03:48:36;;;;;;;1999.90;999.90;;;15.30;72.90;;;;;;5053197;28;20640;-50
2021/03/09 03:51:07;;;;;;;1999.90;999.90;;;15.30;72.60;;;;;;5053111;28;20169;-49
2021/03/09 03:53:54;;;;;;;1999.90;999.90;;;15.40;72.30;;;;;;5053150;28;20211;-48
2021/03/09 03:56:41;;;;;;;1999.90;999.90;;;15.40;72.00;;;;;;5052985;28;20201;-48
2021/03/09 03:59:31;;;;;;;1999.90;999.90;;;15.50;71.40;;;;;;5053040;28;20160;-46
2021/03/09 04:02:04;;;;;;;1999.90;999.90;;;15.50;71.00;;;;;;5052755;28;20181;-47
2021/03/09 04:04:32;;;;;;;1999.90;999.90;;;15.60;70.90;;;;;;5052998;28;20200;-48
2021/03/09 04:07:00;;;;;;;1999.90;999.90;;;15.60;71.00;;;;;;5052930;28;20577;-46
2021/03/09 04:09:27;;;;;;;1999.90;999.90;;;15.70;71.20;;;;;;5052914;28;20173;-47
2021/03/09 04:11:56;;;;;;;1999.90;999.90;;;15.70;71.20;;;;;;5052882;28;20165;-47
2021/03/09 04:14:23;;;;;;;1999.90;999.90;;;15.80;70.80;;;;;;5052793;28;20628;-47
2021/03/09 04:16:53;;;;;;;1999.90;999.90;;;15.70;70.70;;;;;;5052787;28;20204;-49
2021/03/09 04:19:22;;;;;;;1999.90;999.90;;;15.70;70.80;;;;;;5052763;28;20169;-47
2021/03/09 04:21:50;;;;;;;1999.90;999.90;;;15.70;70.70;;;;;;5052916;28;20165;-47
2021/03/09 04:24:17;;;;;;;1999.90;999.90;;;15.70;70.60;;;;;;5052877;28;20165;-47
2021/03/09 04:26:46;;;;;;;1999.90;999.90;;;15.70;70.70;;;;;;5052693;28;20252;-47
2021/03/09 04:29:14;;;;;;;1999.90;999.90;;;15.80;70.30;;;;;;5052677;28;20157;-47
2021/03/09 04:31:44;;;;;;;1999.90;999.90;;;15.80;70.40;;;;;;5052640;28;20181;-48
2021/03/09 04:34:12;;;;;;;1999.90;999.90;;;15.90;70.50;;;;;;5052608;28;20177;-47
2021/03/09 04:36:42;;;;;;;1999.90;999.90;;;15.80;70.30;;;;;;5056249;28;20613;-48
2021/03/09 04:39:09;;;;;;;1999.90;999.90;;;15.90;69.80;;;;;;5056736;28;20165;-48
2021/03/09 04:41:36;;;;;;;1999.90;999.90;;;15.90;69.90;;;;;;5056641;28;20534;-48
2021/03/09 04:44:04;;;;;;;1999.90;999.90;;;15.90;70.50;;;;;;5056587;28;20168;-49
2021/03/09 04:46:31;;;;;;;1999.90;999.90;;;15.90;69.90;;;;;;5056599;28;20165;-48
2021/03/09 04:48:58;;;;;;;1999.90;999.90;;;15.90;69.40;;;;;;5056486;28;20201;-47
2021/03/09 04:51:25;;;;;;;1999.90;999.90;;;16.00;69.20;;;;;;5056520;28;20624;-48
2021/03/09 04:53:54;;;;;;;1999.90;999.90;;;16.10;69.00;;;;;;5056331;28;20184;-47
2021/03/09 04:56:21;;;;;;;1999.90;999.90;;;16.10;68.70;;;;;;5056453;28;20208;-48
2021/03/09 04:58:47;;;;;;;1999.90;999.90;;;16.10;68.40;;;;;;5056496;28;20173;-48
2021/03/09 05:01:14;;;;;;;1999.90;999.90;;;16.20;68.20;;;;;;5056275;28;20227;-47
2021/03/09 05:03:41;;;;;;;1999.90;999.90;;;16.20;68.00;;;;;;5056190;28;20177;-48
2021/03/09 05:06:08;;;;;;;1999.90;999.90;;;16.30;67.90;;;;;;5056141;28;20165;-47
2021/03/09 05:08:35;;;;;;;1999.90;999.90;;;16.30;67.70;;;;;;5056147;28;20165;-49
2021/03/09 05:11:02;;;;;;;1999.90;999.90;;;16.30;67.30;;;;;;5056099;28;20265;-48
2021/03/09 05:13:28;;;;;;;1999.90;999.90;;;16.30;67.20;;;;;;5055929;28;20184;-51
2021/03/09 05:15:55;;;;;;;1999.90;999.90;;;16.40;67.00;;;;;;5055914;28;20296;-47
2021/03/09 05:18:22;;;;;;;1999.90;999.90;;;16.40;66.60;;;;;;5055979;28;20173;-48
2021/03/09 05:20:49;;;;;;;1999.90;999.90;;;16.40;66.70;;;;;;5055938;28;20205;-51
2021/03/09 05:23:16;;;;;;;1999.90;999.90;;;16.50;66.60;;;;;;5055671;28;20176;-47
2021/03/09 05:25:42;;;;;;;1999.90;999.90;;;16.50;66.30;;;;;;5055663;28;20172;-48
2021/03/09 05:28:10;;;;;;;1999.90;999.90;;;16.60;66.40;;;;;;5055688;28;20523;-47
2021/03/09 05:30:37;;;;;;;1999.90;999.90;;;16.60;65.90;;;;;;5055607;28;20177;-47
2021/03/09 05:33:04;;;;;;;1999.90;999.90;;;16.70;65.40;;;;;;5055273;28;20251;-48
2021/03/09 05:35:31;;;;;;;1999.90;999.90;;;16.60;65.10;;;;;;5055385;28;20239;-50
2021/03/09 05:37:58;;;;;;;1999.90;999.90;;;16.60;65.10;;;;;;5055200;28;20177;-48
2021/03/09 05:40:25;;;;;;;1999.90;999.90;;;16.60;65.40;;;;;;5055466;28;20252;-51
2021/03/09 05:42:53;;;;;;;1999.90;999.90;;;16.60;65.40;;;;;;5054393;28;20181;-49
2021/03/09 05:45:22;;;;;;;1999.90;999.90;;;16.60;64.90;;;;;;5055211;28;20161;-46
2021/03/09 05:47:50;;;;;;;1999.90;999.90;;;16.70;65.20;;;;;;5054485;28;20261;-46
2021/03/09 05:50:17;;;;;;;1999.90;999.90;;;16.70;65.60;;;;;;5055204;28;20227;-47
2021/03/09 05:52:44;;;;;;;1999.90;999.90;;;16.70;64.80;;;;;;5054520;28;20180;-52
2021/03/09 05:55:13;;;;;;;1999.90;999.90;;;16.80;63.80;;;;;;5054470;28;20653;-52
2021/03/09 05:57:40;;;;;;;1999.90;999.90;;;17.00;63.40;;;;;;5054623;28;20654;-51
2021/03/09 06:00:09;;;;;;;1999.90;999.90;;;17.10;63.20;;;;;;5054122;28;20559;-51
2021/03/09 06:02:36;;;;;;;1999.90;999.90;;;17.20;62.60;;;;;;5054205;28;20631;-44
2021/03/09 06:05:05;;;;;;;1999.90;999.90;;;17.40;62.60;;;;;;5050701;28;20697;-46
2021/03/09 06:07:32;;;;;;;1999.90;999.90;;;17.30;62.70;;;;;;5054840;28;20244;-55
2021/03/09 06:09:59;;;;;;;1999.90;999.90;;;17.20;62.60;;;;;;5054918;28;20181;-53
2021/03/09 06:12:26;;;;;;;1999.90;999.90;;;17.30;63.10;;;;;;5054744;28;20172;-45
2021/03/09 06:15:05;;;;;;;1999.90;999.90;;;17.40;61.90;;;;;;5054330;28;20170;-55
2021/03/09 06:17:39;;;;;;;1999.90;999.90;;;17.30;62.00;;;;;;5053455;28;20287;-54
2021/03/09 06:20:16;;;;;;;1999.90;999.90;;;17.30;62.40;;;;;;5053277;28;20177;-51
2021/03/09 06:22:45;;;;;;;1999.90;999.90;;;17.30;62.60;;;;;;5054329;28;20169;-57
2021/03/09 06:25:14;;;;;;;1999.90;999.90;;;17.40;62.10;;;;;;5054450;28;20219;-53
2021/03/09 06:27:42;;;;;;;1999.90;999.90;;;17.40;61.80;;;;;;5053933;28;20177;-46
2021/03/09 06:30:27;;;;;;;1999.90;999.90;;;17.50;61.60;;;;;;5053123;28;20705;-49
2021/03/09 06:32:54;;;;;;;1999.90;999.90;;;17.40;61.40;;;;;;5034875;28;20244;-46
2021/03/09 06:35:34;;;;;;;1999.90;999.90;;;17.50;61.30;;;;;;5053841;28;20705;-47
2021/03/09 06:38:26;;;;;;;1999.90;999.90;;;17.60;61.20;;;;;;5053396;28;20173;-54
2021/03/09 06:41:25;;;;;;;1999.90;999.90;;;17.60;61.40;;;;;;5053549;28;20177;-51
2021/03/09 06:44:03;;;;;;;1999.90;999.90;;;17.40;61.80;;;;;;5030849;28;20193;-54
2021/03/09 06:46:44;;;;;;;1999.90;999.90;;;17.50;62.00;;;;;;5053794;28;20188;-58
2021/03/09 06:49:11;;;;;;;1999.90;999.90;;;17.70;61.50;;;;;;5053943;28;20165;-51
2021/03/09 06:51:38;;;;;;;1999.90;999.90;;;17.80;61.10;;;;;;5053793;28;20252;-50
2021/03/09 06:54:10;;;;;;;1999.90;999.90;;;17.90;60.80;;;;;;5052101;28;20165;-46
2021/03/09 06:56:39;;;;;;;1999.90;999.90;;;17.80;61.10;;;;;;5052234;28;20205;-48
2021/03/09 06:59:21;;;;;;;1999.90;999.90;;;17.80;61.30;;;;;;5052645;28;20177;-47
2021/03/09 07:02:20;;;;;;;1999.90;999.90;;;17.80;61.20;;;;;;5053233;28;20169;-49
2021/03/09 07:05:09;;;;;;;1999.90;999.90;;;17.90;61.00;;;;;;5045850;28;20189;-48
2021/03/09 07:07:41;;;;;;;1999.90;999.90;;;18.40;60.40;;;;;;5053361;28;20611;-53
2021/03/09 07:10:10;;;;;;;1999.90;999.90;;;18.70;59.40;;;;;;5053451;28;20631;-57
2021/03/09 07:12:41;;;;;;;1999.90;999.90;;;18.90;58.60;;;;;;5052828;28;20475;-54
2021/03/09 07:15:11;;;;;;;1999.90;999.90;;;18.70;59.10;;;;;;5053054;28;20628;-49
2021/03/09 07:17:39;;;;;;;1999.90;999.90;;;18.60;59.20;;;;;;5053368;28;20228;-48
2021/03/09 07:20:12;;;;;;;1999.90;999.90;;;18.50;59.50;;;;;;5052908;28;20173;-48
2021/03/09 07:22:39;;;;;;;1999.90;999.90;;;18.50;59.70;;;;;;5053818;28;20177;-51
2021/03/09 07:25:14;;;;;;;1999.90;999.90;;;18.50;59.80;;;;;;5053032;28;20193;-41
2021/03/09 07:27:57;;;;;;;1999.90;999.90;;;18.60;60.00;;;;;;5053280;28;20180;-57
2021/03/09 07:30:26;;;;;;;1999.90;999.90;;;18.60;60.00;;;;;;5053152;28;20676;-48
2021/03/09 07:32:55;;;;;;;1999.90;999.90;;;18.80;59.70;;;;;;5052812;28;20232;-54
2021/03/09 07:35:23;;;;;;;1999.90;999.90;;;18.90;59.90;;;;;;5052822;28;20196;-51
2021/03/09 07:37:54;;;;;;;1999.90;999.90;;;19.20;59.40;;;;;;5053077;28;20196;-47
2021/03/09 07:40:30;;;;;;;1999.90;999.90;;;19.50;58.80;;;;;;5053078;28;20145;-52
2021/03/09 07:42:57;;;;;;;1999.90;999.90;;;19.60;58.10;;;;;;5052812;28;20238;-57
2021/03/09 07:45:32;;;;;;;1999.90;999.90;;;19.80;58.20;;;;;;5053048;28;20162;-47
2021/03/09 07:48:03;;;;;;;1999.90;999.90;;;20.20;57.80;;;;;;5053068;28;20184;-47
2021/03/09 07:50:35;;;;;;;1999.90;999.90;;;20.60;57.20;;;;;;5052507;28;20177;-56
2021/03/09 07:53:07;;;;;;;1999.90;999.90;;;21.10;55.70;;;;;;5056632;28;20172;-58
2021/03/09 07:55:36;;;;;;;1999.90;999.90;;;21.60;54.60;;;;;;5052507;28;20176;-45
2021/03/09 07:58:25;;;;;;;1999.90;999.90;;;21.50;54.10;;;;;;5052235;28;20692;-48
2021/03/09 08:01:05;;;;;;;1999.90;999.90;;;21.90;53.30;;;;;;5052710;28;20174;-56
2021/03/09 08:03:34;;;;;;;1999.90;999.90;;;22.00;54.30;;;;;;5052695;28;20153;-46
2021/03/09 08:06:11;;;;;;;1999.90;999.90;;;21.50;54.40;;;;;;5052463;28;20169;-51
2021/03/09 08:08:51;;;;;;;1999.90;999.90;;;21.30;54.70;;;;;;5052152;28;20582;-47
2021/03/09 08:11:24;;;;;;;1999.90;999.90;;;21.30;55.20;;;;;;5051373;28;20215;-55
2021/03/09 08:14:09;;;;;;;1999.90;999.90;;;20.90;55.70;;;;;;5032663;28;20165;-49
2021/03/09 08:16:42;;;;;;;1999.90;999.90;;;20.70;56.70;;;;;;5034391;28;20209;-42
2021/03/09 08:19:25;;;;;;;1999.90;999.90;;;20.60;57.10;;;;;;5052225;28;20169;-51
2021/03/09 08:22:01;;;;;;;1999.90;999.90;;;20.50;57.10;;;;;;5052465;28;20588;-49
2021/03/09 08:24:43;;;;;;;1999.90;999.90;;;20.30;57.90;;;;;;5052156;28;20627;-49
2021/03/09 08:27:28;;;;;;;1999.90;999.90;;;20.20;58.20;;;;;;5054463;28;20188;-47
2021/03/09 08:30:28;;;;;;;1999.90;999.90;;;20.30;58.00;;;;;;5052344;28;20165;-55
2021/03/09 08:33:15;;;;;;;1999.90;999.90;;;20.40;58.00;;;;;;5051505;28;20217;-57
2021/03/09 08:35:42;;;;;;;1999.90;999.90;;;20.50;57.50;;;;;;5043662;28;20217;-55
2021/03/09 08:38:14;;;;;;;1999.90;999.90;;;20.50;57.50;;;;;;5052385;28;20256;-53
2021/03/09 08:41:02;;;;;;;1999.90;999.90;;;20.50;57.40;;;;;;5051853;28;20165;-47
2021/03/09 08:43:29;;;;;;;1999.90;999.90;;;20.70;57.30;;;;;;5052200;28;20517;-51
2021/03/09 08:46:01;;;;;;;1999.90;999.90;;;20.90;57.00;;;;;;5051892;28;20173;-60
2021/03/09 08:48:49;;;;;;;1999.90;999.90;;;21.20;56.40;;;;;;5049998;28;20173;-48
2021/03/09 08:51:40;;;;;;;1999.90;999.90;;;21.30;56.40;;;;;;5052021;28;20177;-61
2021/03/09 08:54:18;;;;;;;1999.90;999.90;;;21.30;55.60;;;;;;5050297;28;20173;-47
2021/03/09 08:56:45;;;;;;;1999.90;999.90;;;21.40;55.70;;;;;;5051272;28;20197;-58
2021/03/09 08:59:13;;;;;;;1999.90;999.90;;;21.70;55.10;;;;;;5050267;28;20636;-59
2021/03/09 09:01:40;;;;;;;1999.90;999.90;;;21.80;54.40;;;;;;5050607;28;20659;-54
2021/03/09 09:04:17;;;;;;;1999.90;999.90;;;21.90;54.10;;;;;;5050468;28;20221;-53
2021/03/09 09:06:45;;;;;;;1999.90;999.90;;;21.70;54.30;;;;;;5052224;28;20241;-58
2021/03/09 09:09:13;;;;;;;1999.90;999.90;;;21.60;54.70;;;;;;5051918;28;20177;-52
2021/03/09 09:11:40;;;;;;;1999.90;999.90;;;21.70;55.20;;;;;;5051313;28;20181;-50
2021/03/09 09:14:17;;;;;;;1999.90;999.90;;;22.00;54.60;;;;;;5051972;28;20215;-53
2021/03/09 09:16:46;;;;;;;1999.90;999.90;;;22.20;53.60;;;;;;5051979;28;20232;-50
2021/03/09 09:19:13;;;;;;;1999.90;999.90;;;22.40;53.10;;;;;;5051990;28;20173;-51
2021/03/09 09:21:48;;;;;;;1999.90;999.90;;;22.60;52.70;;;;;;5052469;28;20514;-57
2021/03/09 09:24:19;;;;;;;1999.90;999.90;;;22.70;53.00;;;;;;5055415;28;20168;-48
2021/03/09 09:26:56;;;;;;;1999.90;999.90;;;22.60;51.90;;;;;;5055200;28;20205;-59
2021/03/09 09:29:23;;;;;;;1999.90;999.90;;;22.50;51.70;;;;;;5054795;28;20259;-59
2021/03/09 09:31:58;;;;;;;1999.90;999.90;;;22.40;52.30;;;;;;5055634;28;20176;-52
2021/03/09 09:34:36;;;;;;;1999.90;999.90;;;22.60;52.40;;;;;;5055362;28;20161;-53
2021/03/09 09:37:16;;;;;;;1999.90;999.90;;;23.10;51.00;;;;;;5053616;28;20216;-55
2021/03/09 09:39:44;;;;;;;1999.90;999.90;;;23.30;49.70;;;;;;5054936;28;20194;-58
2021/03/09 09:42:19;;;;;;;1999.90;999.90;;;23.40;49.50;;;;;;5054745;28;20269;-50
2021/03/09 09:44:47;;;;;;;1999.90;999.90;;;23.20;49.50;;;;;;5054385;28;20252;-46
2021/03/09 09:47:14;;;;;;;1999.90;999.90;;;23.20;49.90;;;;;;5054779;28;20254;-60
2021/03/09 09:49:44;;;;;;;1999.90;999.90;;;23.20;49.50;;;;;;5046904;28;20181;-55
2021/03/09 09:52:19;;;;;;;1999.90;999.90;;;23.10;49.90;;;;;;5050507;28;20184;-47
2021/03/09 09:54:55;;;;;;;1999.90;999.90;;;23.00;50.50;;;;;;5052568;28;20169;-47
2021/03/09 09:57:23;;;;;;;1999.90;999.90;;;22.70;51.10;;;;;;5055113;28;20236;-49
2021/03/09 09:59:50;;;;;;;1999.90;999.90;;;22.50;51.60;;;;;;5055008;28;20667;-49
2021/03/09 10:02:20;;;;;;;1999.90;999.90;;;22.40;52.20;;;;;;5054774;28;20181;-54
2021/03/09 10:04:47;;;;;;;1999.90;999.90;;;22.50;51.90;;;;;;5055002;28;20213;-47
2021/03/09 10:07:19;;;;;;;1999.90;999.90;;;22.60;51.90;;;;;;5055127;28;20222;-59
2021/03/09 10:10:09;;;;;;;1999.90;999.90;;;22.80;51.50;;;;;;5055130;28;20161;-46
2021/03/09 10:12:38;;;;;;;1999.90;999.90;;;22.80;51.20;;;;;;5043893;28;20169;-44
2021/03/09 10:15:07;;;;;;;1999.90;999.90;;;22.80;51.90;;;;;;5054917;28;20583;-50
2021/03/09 10:17:35;;;;;;;1999.90;999.90;;;22.80;51.30;;;;;;5054456;28;20204;-49
2021/03/09 10:20:16;;;;;;;1999.90;999.90;;;22.70;51.30;;;;;;5054801;28;20655;-53
2021/03/09 10:22:43;;;;;;;1999.90;999.90;;;22.50;51.80;;;;;;5054775;28;20531;-47
2021/03/09 10:25:15;;;;;;;1999.90;999.90;;;22.40;52.20;;;;;;5054662;28;20581;-43
2021/03/09 10:27:42;;;;;;;1999.90;999.90;;;22.20;53.00;;;;;;5054290;28;20536;-45
2021/03/09 10:30:10;;;;;;;1999.90;999.90;;;22.20;53.20;;;;;;5054534;28;20999;-49
2021/03/09 10:32:52;;;;;;;1999.90;999.90;;;22.20;52.80;;;;;;5053885;28;20671;-49
2021/03/09 10:35:19;;;;;;;1999.90;999.90;;;22.40;52.70;;;;;;5054554;28;20257;-48
2021/03/09 10:37:47;;;;;;;1999.90;999.90;;;22.80;51.90;;;;;;5054344;28;20228;-46
2021/03/09 10:40:15;;;;;;;1999.90;999.90;;;23.00;51.30;;;;;;5053980;28;20170;-45
2021/03/09 10:42:51;;;;;;;1999.90;999.90;;;22.90;51.30;;;;;;5053943;28;20184;-45
2021/03/09 10:45:22;;;;;;;1999.90;999.90;;;22.90;51.20;;;;;;5054154;28;20216;-49
2021/03/09 10:47:51;;;;;;;1999.90;999.90;;;22.90;51.30;;;;;;5053647;28;20188;-48
2021/03/09 10:50:20;;;;;;;1999.90;999.90;;;22.80;51.40;;;;;;5054123;28;20200;-51
2021/03/09 10:52:47;;;;;;;1999.90;999.90;;;22.80;51.70;;;;;;5053354;28;20176;-46
2021/03/09 10:55:14;;;;;;;1999.90;999.90;;;22.80;51.60;;;;;;5054105;28;20173;-48
2021/03/09 10:57:42;;;;;;;1999.90;999.90;;;22.90;51.80;;;;;;5053627;28;20223;-51
2021/03/09 11:00:14;;;;;;;1999.90;999.90;;;23.00;51.40;;;;;;5053914;28;20231;-47
2021/03/09 11:02:42;;;;;;;1999.90;999.90;;;23.00;51.30;;;;;;5053583;28;20170;-46
2021/03/09 11:05:09;;;;;;;1999.90;999.90;;;23.00;50.80;;;;;;5053451;28;20177;-45
2021/03/09 11:07:36;;;;;;;1999.90;999.90;;;23.10;50.60;;;;;;5053230;28;20183;-51
2021/03/09 11:10:05;;;;;;;1999.90;999.90;;;23.20;50.90;;;;;;5056400;28;20267;-51
2021/03/09 11:12:32;;;;;;;1999.90;999.90;;;23.30;50.50;;;;;;5054165;28;20169;-53
2021/03/09 11:14:58;;;;;;;1999.90;999.90;;;23.20;50.40;;;;;;5053115;28;20644;-50
2021/03/09 11:17:25;;;;;;;1999.90;999.90;;;23.10;50.60;;;;;;5053156;28;20266;-50
2021/03/09 11:19:52;;;;;;;1999.90;999.90;;;23.00;50.70;;;;;;5053220;28;20172;-47
2021/03/09 11:22:19;;;;;;;1999.90;999.90;;;22.90;51.10;;;;;;5053698;28;20675;-49
2021/03/09 11:24:46;;;;;;;1999.90;999.90;;;22.80;51.10;;;;;;5053563;28;20169;-47
2021/03/09 11:27:13;;;;;;;1999.90;999.90;;;22.80;51.30;;;;;;5052922;28;20173;-52
2021/03/09 11:29:41;;;;;;;1999.90;999.90;;;22.60;51.60;;;;;;5052704;28;20177;-44
2021/03/09 11:32:08;;;;;;;1999.90;999.90;;;22.50;51.90;;;;;;5053231;28;20750;-52
2021/03/09 11:34:35;;;;;;;1999.90;999.90;;;22.50;51.90;;;;;;5052830;28;20165;-47
2021/03/09 11:37:02;;;;;;;1999.90;999.90;;;22.40;51.90;;;;;;5053356;28;20219;-53
2021/03/09 11:39:29;;;;;;;1999.90;999.90;;;22.50;51.60;;;;;;5053082;28;20252;-53
2021/03/09 11:41:56;;;;;;;1999.90;999.90;;;22.50;52.00;;;;;;5053353;28;20196;-56
2021/03/09 11:44:23;;;;;;;1999.90;999.90;;;22.50;52.30;;;;;;5052583;28;20185;-47
2021/03/09 11:46:50;;;;;;;1999.90;999.90;;;22.50;52.20;;;;;;5052628;28;20181;-42
2021/03/09 11:49:17;;;;;;;1999.90;999.90;;;22.40;52.50;;;;;;5053095;28;20165;-46
2021/03/09 11:51:45;;;;;;;1999.90;999.90;;;22.30;52.80;;;;;;5052920;28;20223;-44
2021/03/09 11:54:12;;;;;;;1999.90;999.90;;;22.20;53.00;;;;;;5052800;28;20177;-55
2021/03/09 11:56:40;;;;;;;1999.90;999.90;;;22.10;53.40;;;;;;5052682;28;20671;-46
2021/03/09 11:59:07;;;;;;;1999.90;999.90;;;22.00;53.50;;;;;;5051982;28;20177;-61
2021/03/09 12:01:35;;;;;;;1999.90;999.90;;;22.10;53.70;;;;;;5052396;28;20553;-51
2021/03/09 12:04:02;;;;;;;1999.90;999.90;;;22.00;53.70;;;;;;5052765;28;20555;-46
2021/03/09 12:06:28;;;;;;;1999.90;999.90;;;22.00;54.00;;;;;;5052460;28;20186;-57
2021/03/09 12:08:55;;;;;;;1999.90;999.90;;;21.90;54.20;;;;;;5052260;28;20209;-48
2021/03/09 12:11:22;;;;;;;1999.90;999.90;;;22.00;54.10;;;;;;5052189;28;20253;-48
2021/03/09 12:13:49;;;;;;;1999.90;999.90;;;21.90;54.20;;;;;;5052013;28;20260;-46
2021/03/09 12:16:16;;;;;;;1999.90;999.90;;;22.00;54.40;;;;;;5052208;28;20220;-47